Time;durP1;ratioP1;P1;durP2;ratioP2;P2;SDS_P1;SDS_P2;PMS_P1;PMS_P2;Temp;Humidity;BMP_temperature;BMP_pressure;BME280_temperature;BME280_humidity;BME280_pressure;Samples;Min_cycle;Max_cycle;Signal;HPM_P1;HPM_P2
2021/07/02 00:00:54;;;;;;;;;;;16.90;98.20;;;;;;4991776;28;20367;-59
2021/07/02 00:03:20;;;;;;;;;;;16.90;98.10;;;;;;4991710;28;20351;-58
2021/07/02 00:05:45;;;;;;;;;;;16.90;98.10;;;;;;4991302;28;19940;-59
2021/07/02 00:08:11;;;;;;;;;;;17.00;98.10;;;;;;4991362;28;19940;-58
2021/07/02 00:10:36;;;;;;;;;;;16.90;98.10;;;;;;4991125;28;20447;-59
2021/07/02 00:13:02;;;;;;;;;;;17.00;98.10;;;;;;4991543;28;20305;-58
2021/07/02 00:15:28;;;;;;;;;;;16.90;98.10;;;;;;4991645;28;19918;-58
2021/07/02 00:17:53;;;;;;;;;;;16.90;98.10;;;;;;4990706;28;19922;-59
2021/07/02 00:20:19;;;;;;;;;;;16.90;98.10;;;;;;4991473;28;19918;-58
2021/07/02 00:22:44;;;;;;;;;;;16.90;98.10;;;;;;4991433;28;19918;-59
2021/07/02 00:25:10;;;;;;;;;;;16.90;98.00;;;;;;4990665;28;19918;-59
2021/07/02 00:27:36;;;;;;;;;;;16.90;98.00;;;;;;4990976;28;20287;-58
2021/07/02 00:30:02;;;;;;;;;;;16.80;98.00;;;;;;4990888;28;19944;-59
2021/07/02 00:32:27;;;;;;;;;;;16.80;98.10;;;;;;4991202;28;19928;-58
2021/07/02 00:34:53;;;;;;;;;;;16.80;98.10;;;;;;4991271;28;19918;-58
2021/07/02 00:37:18;;;;;;;;;;;16.80;98.20;;;;;;4990468;28;20331;-59
2021/07/02 00:39:44;;;;;;;;;;;16.80;98.20;;;;;;4989865;28;20009;-58
2021/07/02 00:42:10;;;;;;;;;;;16.80;98.20;;;;;;4989768;28;19918;-58
2021/07/02 00:44:40;;;;;;;;;;;16.80;98.20;;;;;;4990638;28;19921;-58
2021/07/02 00:47:06;;;;;;;;;;;16.80;98.20;;;;;;4990879;28;19930;-58
2021/07/02 00:49:35;;;;;;;;;;;16.80;98.30;;;;;;4990577;28;20343;-59
2021/07/02 00:52:01;;;;;;;;;;;16.80;98.30;;;;;;4990870;28;19922;-59
2021/07/02 00:54:27;;;;;;;;;;;16.80;98.30;;;;;;4989591;28;20431;-58
2021/07/02 00:56:53;;;;;;;;;;;16.80;98.30;;;;;;4989097;28;19929;-58
2021/07/02 00:59:18;;;;;;;;;;;16.80;98.30;;;;;;4990879;28;19946;-58
2021/07/02 01:01:44;;;;;;;;;;;16.90;98.20;;;;;;4989743;28;19918;-58
2021/07/02 01:04:10;;;;;;;;;;;16.80;98.20;;;;;;4989018;28;20275;-59
2021/07/02 01:06:35;;;;;;;;;;;16.80;98.00;;;;;;4990535;28;19983;-59
2021/07/02 01:09:03;;;;;;;;;;;16.80;98.00;;;;;;4990194;28;19918;-59
2021/07/02 01:11:29;;;;;;;;;;;16.70;98.10;;;;;;4990626;28;19944;-59
2021/07/02 01:13:56;;;;;;;;;;;16.70;98.20;;;;;;4989330;28;19918;-58
2021/07/02 01:16:22;;;;;;;;;;;16.70;98.20;;;;;;4988834;28;19918;-58
2021/07/02 01:18:48;;;;;;;;;;;16.70;98.20;;;;;;4988922;28;19964;-58
2021/07/02 01:21:14;;;;;;;;;;;16.70;98.10;;;;;;4988721;28;19918;-58
2021/07/02 01:23:42;;;;;;;;;;;16.70;98.30;;;;;;4990488;28;19943;-58
2021/07/02 01:26:09;;;;;;;;;;;16.70;98.30;;;;;;4989257;28;19950;-58
2021/07/02 01:28:34;;;;;;;;;;;16.80;98.40;;;;;;4988440;28;19922;-58
2021/07/02 01:31:00;;;;;;;;;;;16.70;98.30;;;;;;4990326;28;20362;-58
2021/07/02 01:33:26;;;;;;;;;;;16.70;98.10;;;;;;4989934;28;19926;-60
2021/07/02 01:35:52;;;;;;;;;;;16.70;98.10;;;;;;4989357;28;19972;-59
2021/07/02 01:38:19;;;;;;;;;;;16.70;98.20;;;;;;4988746;28;20435;-59
2021/07/02 01:40:47;;;;;;;;;;;16.70;98.30;;;;;;4988556;28;19965;-58
2021/07/02 01:43:13;;;;;;;;;;;16.70;98.30;;;;;;4988800;28;19924;-58
2021/07/02 01:45:40;;;;;;;;;;;16.60;98.30;;;;;;4972646;28;20397;-59
2021/07/02 01:48:06;;;;;;;;;;;16.70;98.30;;;;;;4988477;28;19917;-58
2021/07/02 01:50:33;;;;;;;;;;;16.70;98.20;;;;;;4990000;28;19918;-58
2021/07/02 01:53:02;;;;;;;;;;;16.70;98.20;;;;;;4988327;28;19961;-59
2021/07/02 01:55:27;;;;;;;;;;;16.70;98.20;;;;;;4988916;28;20396;-58
2021/07/02 01:57:57;;;;;;;;;;;16.60;98.20;;;;;;4989358;28;19918;-59
2021/07/02 02:00:28;;;;;;;;;;;16.70;98.30;;;;;;4988719;28;19961;-58
2021/07/02 02:03:03;;;;;;;;;;;16.70;98.20;;;;;;4988592;28;19976;-58
2021/07/02 02:05:29;;;;;;;;;;;16.60;98.10;;;;;;4989456;28;20358;-59
2021/07/02 02:07:55;;;;;;;;;;;16.60;98.20;;;;;;4987630;28;19944;-60
2021/07/02 02:10:21;;;;;;;;;;;16.60;98.30;;;;;;4988098;28;19918;-60
2021/07/02 02:12:47;;;;;;;;;;;16.60;98.30;;;;;;4989681;28;19925;-60
2021/07/02 02:15:13;;;;;;;;;;;16.60;98.30;;;;;;4988515;28;19924;-60
2021/07/02 02:17:43;;;;;;;;;;;16.60;98.20;;;;;;4987731;28;19922;-58
2021/07/02 02:20:10;;;;;;;;;;;16.60;98.20;;;;;;4988397;28;19968;-58
2021/07/02 02:22:35;;;;;;;;;;;16.60;98.20;;;;;;4989179;28;20000;-58
2021/07/02 02:25:03;;;;;;;;;;;16.60;98.10;;;;;;4988326;28;19922;-58
2021/07/02 02:27:28;;;;;;;;;;;16.60;98.10;;;;;;4989311;28;19920;-58
2021/07/02 02:29:57;;;;;;;;;;;16.50;98.10;;;;;;4987713;28;19926;-58
2021/07/02 02:32:23;;;;;;;;;;;16.50;98.20;;;;;;4988144;28;19921;-58
2021/07/02 02:34:48;;;;;;;;;;;16.50;98.20;;;;;;4989116;28;19924;-60
2021/07/02 02:37:16;;;;;;;;;;;16.50;98.10;;;;;;4989193;28;19925;-59
2021/07/02 02:39:42;;;;;;;;;;;16.50;97.90;;;;;;4988138;28;19918;-59
2021/07/02 02:42:07;;;;;;;;;;;16.30;97.80;;;;;;4987687;28;19929;-58
2021/07/02 02:44:33;;;;;;;;;;;16.30;98.00;;;;;;4988140;28;20053;-58
2021/07/02 02:47:00;;;;;;;;;;;16.30;98.00;;;;;;4988417;28;19922;-58
2021/07/02 02:49:26;;;;;;;;;;;16.30;98.00;;;;;;4992610;28;19924;-58
2021/07/02 02:51:52;;;;;;;;;;;16.30;98.00;;;;;;4991553;28;20305;-59
2021/07/02 02:54:18;;;;;;;;;;;16.20;97.90;;;;;;4992470;28;19918;-59
2021/07/02 02:59:29;;;;;;;;;;;16.10;97.90;;;;;;4991080;28;19953;-59
2021/07/02 03:01:56;;;;;;;;;;;16.10;98.00;;;;;;4992613;28;19918;-58
2021/07/02 03:04:22;;;;;;;;;;;16.10;98.00;;;;;;4991436;28;19917;-58
2021/07/02 03:06:48;;;;;;;;;;;16.10;98.10;;;;;;4991888;28;19922;-59
2021/07/02 03:09:14;;;;;;;;;;;16.10;98.00;;;;;;4991191;28;19918;-59
2021/07/02 03:11:39;;;;;;;;;;;16.10;98.00;;;;;;4991872;28;19928;-59
2021/07/02 03:14:05;;;;;;;;;;;16.10;98.00;;;;;;4991192;28;19918;-59
2021/07/02 03:16:31;;;;;;;;;;;16.00;98.00;;;;;;4991086;28;19953;-58
2021/07/02 03:18:57;;;;;;;;;;;16.10;98.00;;;;;;4990355;28;19918;-59
2021/07/02 03:21:23;;;;;;;;;;;16.00;98.00;;;;;;4991005;28;19914;-59
2021/07/02 03:23:49;;;;;;;;;;;16.00;98.20;;;;;;4991616;28;19922;-59
2021/07/02 03:26:17;;;;;;;;;;;16.10;98.10;;;;;;4974860;28;19982;-58
2021/07/02 03:28:46;;;;;;;;;;;16.00;97.90;;;;;;4990756;28;19924;-59
2021/07/02 03:31:11;;;;;;;;;;;16.00;97.90;;;;;;4991673;28;19922;-59
2021/07/02 03:33:38;;;;;;;;;;;16.00;98.00;;;;;;4992026;28;20345;-58
2021/07/02 03:36:04;;;;;;;;;;;16.00;98.00;;;;;;4990712;28;19965;-58
2021/07/02 03:38:31;;;;;;;;;;;16.00;97.90;;;;;;4990045;28;19925;-58
2021/07/02 03:40:56;;;;;;;;;;;16.00;98.00;;;;;;4992051;28;19918;-58
2021/07/02 03:43:23;;;;;;;;;;;16.00;98.10;;;;;;4990299;28;19918;-59
2021/07/02 03:45:50;;;;;;;;;;;16.10;98.20;;;;;;4990782;28;20055;-58
2021/07/02 03:48:18;;;;;;;;;;;16.10;98.20;;;;;;4990463;28;20273;-59
2021/07/02 03:50:47;;;;;;;;;;;16.20;98.10;;;;;;4989963;28;19969;-58
2021/07/02 03:53:13;;;;;;;;;;;16.10;97.90;;;;;;4991743;28;19989;-59
2021/07/02 03:55:39;;;;;;;;;;;16.10;97.90;;;;;;4991539;28;19925;-59
2021/07/02 03:58:04;;;;;;;;;;;16.20;98.00;;;;;;4990093;28;19963;-59
2021/07/02 04:00:30;;;;;;;;;;;16.20;98.10;;;;;;4991155;28;19921;-59
2021/07/02 04:02:56;;;;;;;;;;;16.20;98.10;;;;;;4989940;28;20044;-59
2021/07/02 04:05:21;;;;;;;;;;;16.30;97.90;;;;;;4990436;28;19918;-59
2021/07/02 04:07:47;;;;;;;;;;;16.30;98.00;;;;;;4991396;28;19918;-59
2021/07/02 04:10:13;;;;;;;;;;;16.20;97.90;;;;;;4989821;28;19925;-59
2021/07/02 04:12:39;;;;;;;;;;;16.30;97.90;;;;;;4991435;28;19922;-59
2021/07/02 04:15:06;;;;;;;;;;;16.40;98.00;;;;;;4991223;28;19914;-59
2021/07/02 04:17:31;;;;;;;;;;;16.40;98.20;;;;;;4991095;28;19918;-59
2021/07/02 04:19:57;;;;;;;;;;;16.50;98.00;;;;;;4991554;28;19918;-58
2021/07/02 04:22:22;;;;;;;;;;;16.60;98.00;;;;;;4990843;28;19918;-59
2021/07/02 04:24:48;;;;;;;;;;;16.50;97.80;;;;;;4991812;28;20374;-69
2021/07/02 04:27:14;;;;;;;;;;;16.50;97.50;;;;;;4990349;28;20004;-67
2021/07/02 04:29:39;;;;;;;;;;;16.50;97.60;;;;;;4990813;28;19918;-68
2021/07/02 04:32:05;;;;;;;;;;;16.50;97.50;;;;;;4990996;28;19946;-67
2021/07/02 04:34:31;;;;;;;;;;;16.40;97.20;;;;;;4989475;28;19918;-66
2021/07/02 04:36:56;;;;;;;;;;;16.30;97.40;;;;;;4989650;28;19922;-67
2021/07/02 04:39:22;;;;;;;;;;;16.30;97.50;;;;;;4991291;28;20549;-66
2021/07/02 04:41:48;;;;;;;;;;;16.30;97.50;;;;;;4990795;28;20433;-66
2021/07/02 04:44:13;;;;;;;;;;;16.30;97.50;;;;;;4991263;28;19918;-67
2021/07/02 04:46:39;;;;;;;;;;;16.30;97.60;;;;;;4990990;28;19941;-67
2021/07/02 04:49:05;;;;;;;;;;;16.30;97.60;;;;;;4990497;28;19971;-67
2021/07/02 04:51:30;;;;;;;;;;;16.40;97.80;;;;;;4989618;28;20396;-67
2021/07/02 04:53:56;;;;;;;;;;;16.40;98.00;;;;;;4989108;28;19918;-67
2021/07/02 04:56:21;;;;;;;;;;;16.50;98.00;;;;;;4990607;28;19918;-67
2021/07/02 04:58:54;;;;;;;;;;;16.70;98.00;;;;;;4990615;28;19918;-67
2021/07/02 05:01:21;;;;;;;;;;;16.80;97.90;;;;;;4990452;28;19931;-67
2021/07/02 05:03:46;;;;;;;;;;;16.90;97.80;;;;;;4988692;28;19917;-66
2021/07/02 05:06:12;;;;;;;;;;;17.00;97.60;;;;;;4990202;28;19963;-69
2021/07/02 05:08:38;;;;;;;;;;;17.00;97.40;;;;;;4989565;28;19924;-69
2021/07/02 05:11:04;;;;;;;;;;;17.00;97.40;;;;;;4988986;28;20374;-67
2021/07/02 05:13:31;;;;;;;;;;;17.10;97.50;;;;;;4990001;28;19927;-68
2021/07/02 05:15:56;;;;;;;;;;;17.20;97.60;;;;;;4990577;28;19922;-67
2021/07/02 05:18:22;;;;;;;;;;;17.30;97.40;;;;;;4990247;28;19941;-67
2021/07/02 05:20:47;;;;;;;;;;;17.40;97.60;;;;;;4990020;28;19944;-67
2021/07/02 05:23:13;;;;;;;;;;;17.60;97.70;;;;;;4989183;28;20274;-67
2021/07/02 05:25:39;;;;;;;;;;;17.80;97.80;;;;;;4990114;28;20302;-70
2021/07/02 05:28:04;;;;;;;;;;;18.00;97.10;;;;;;4988764;28;19942;-69
2021/07/02 05:30:31;;;;;;;;;;;18.00;96.60;;;;;;4990265;28;19945;-69
2021/07/02 05:32:56;;;;;;;;;;;17.90;96.70;;;;;;4989637;28;20297;-70
2021/07/02 05:35:22;;;;;;;;;;;18.00;96.80;;;;;;4990241;28;19918;-70
2021/07/02 05:37:47;;;;;;;;;;;18.10;96.90;;;;;;4989899;28;19918;-70
2021/07/02 05:40:14;;;;;;;;;;;18.20;96.90;;;;;;4989982;28;19918;-68
2021/07/02 05:42:40;;;;;;;;;;;18.30;96.70;;;;;;4989891;28;20001;-70
2021/07/02 05:45:07;;;;;;;;;;;18.40;96.90;;;;;;4989711;28;19995;-70
2021/07/02 05:47:40;;;;;;;;;;;18.60;96.90;;;;;;4989962;28;20531;-70
2021/07/02 05:50:06;;;;;;;;;;;18.80;96.50;;;;;;4990104;28;20465;-67
2021/07/02 05:52:33;;;;;;;;;;;18.80;95.70;;;;;;4989533;28;19928;-68
2021/07/02 05:54:58;;;;;;;;;;;18.70;95.40;;;;;;4989937;28;19925;-68
2021/07/02 05:57:24;;;;;;;;;;;18.60;95.00;;;;;;4989339;28;19917;-69
2021/07/02 05:59:49;;;;;;;;;;;18.40;94.70;;;;;;4989786;28;19924;-68
2021/07/02 06:02:15;;;;;;;;;;;18.30;95.30;;;;;;4989873;28;19945;-69
2021/07/02 06:04:40;;;;;;;;;;;18.20;95.00;;;;;;4989274;28;19932;-68
2021/07/02 06:07:06;;;;;;;;;;;18.20;95.00;;;;;;4989177;28;19943;-68
2021/07/02 06:09:35;;;;;;;;;;;18.20;94.70;;;;;;4989643;28;20387;-69
2021/07/02 06:12:01;;;;;;;;;;;18.20;95.00;;;;;;4989356;28;19928;-70
2021/07/02 06:14:29;;;;;;;;;;;18.30;95.50;;;;;;4989444;28;19918;-69
2021/07/02 06:16:54;;;;;;;;;;;18.50;95.80;;;;;;4987342;28;19917;-70
2021/07/02 06:19:20;;;;;;;;;;;18.70;95.60;;;;;;4991313;28;19924;-71
2021/07/02 06:21:45;;;;;;;;;;;19.10;95.80;;;;;;4988934;28;20402;-71
2021/07/02 06:24:11;;;;;;;;;;;20.30;97.80;;;;;;4989117;28;20521;-71
2021/07/02 06:26:36;;;;;;;;;;;22.00;99.20;;;;;;4987835;28;19926;-69
2021/07/02 06:29:02;;;;;;;;;;;23.70;98.00;;;;;;4988090;28;19918;-70
2021/07/02 06:31:28;;;;;;;;;;;25.30;96.30;;;;;;4987545;28;19971;-71
2021/07/02 06:33:55;;;;;;;;;;;26.10;92.60;;;;;;4987207;28;21984;-71
2021/07/02 06:36:20;;;;;;;;;;;27.00;92.00;;;;;;4987495;28;20474;-71
2021/07/02 06:38:46;;;;;;;;;;;27.90;89.70;;;;;;4988150;28;19929;-69
2021/07/02 06:41:11;;;;;;;;;;;27.90;82.60;;;;;;4988124;28;19924;-68
2021/07/02 06:43:37;;;;;;;;;;;27.00;80.10;;;;;;4988269;28;19965;-68
2021/07/02 06:46:03;;;;;;;;;;;25.90;78.40;;;;;;4989236;28;19918;-69
2021/07/02 06:48:28;;;;;;;;;;;24.80;77.30;;;;;;4987125;28;19955;-68
2021/07/02 06:50:56;;;;;;;;;;;23.90;78.70;;;;;;4989231;28;19929;-70
2021/07/02 06:53:22;;;;;;;;;;;23.20;79.60;;;;;;4989049;28;20459;-71
2021/07/02 06:55:48;;;;;;;;;;;22.80;81.80;;;;;;4988926;28;19924;-69
2021/07/02 06:58:14;;;;;;;;;;;23.10;84.10;;;;;;4987554;28;19918;-68
2021/07/02 07:00:39;;;;;;;;;;;24.40;89.70;;;;;;4988980;28;19918;-68
2021/07/02 07:03:08;;;;;;;;;;;25.90;85.30;;;;;;4988480;28;19929;-69
2021/07/02 07:05:35;;;;;;;;;;;25.70;77.40;;;;;;4987771;28;20281;-68
2021/07/02 07:08:02;;;;;;;;;;;24.90;74.70;;;;;;4988325;28;19940;-68
2021/07/02 07:10:28;;;;;;;;;;;24.00;74.50;;;;;;4988961;28;19953;-69
2021/07/02 07:12:53;;;;;;;;;;;24.10;80.90;;;;;;4988762;28;19958;-68
2021/07/02 07:15:19;;;;;;;;;;;25.20;82.80;;;;;;4988507;28;19918;-69
2021/07/02 07:17:45;;;;;;;;;;;27.10;84.20;;;;;;4988529;28;20013;-69
2021/07/02 07:20:10;;;;;;;;;;;28.90;79.60;;;;;;4988923;28;20021;-69
2021/07/02 07:22:36;;;;;;;;;;;29.90;74.40;;;;;;4988596;28;19925;-69
2021/07/02 07:25:02;;;;;;;;;;;29.40;66.60;;;;;;4989002;28;19967;-70
2021/07/02 07:27:28;;;;;;;;;;;27.90;62.90;;;;;;4988109;28;19932;-68
2021/07/02 07:29:53;;;;;;;;;;;26.20;64.20;;;;;;4988644;28;19921;-69
2021/07/02 07:32:20;;;;;;;;;;;25.20;68.40;;;;;;4988734;28;20339;-69
2021/07/02 07:34:49;;;;;;;;;;;25.60;70.60;;;;;;4988638;28;19926;-68
2021/07/02 07:37:22;;;;;;;;;;;26.10;71.50;;;;;;4989888;28;19922;-69
2021/07/02 07:39:48;;;;;;;;;;;26.50;71.10;;;;;;4991785;28;20423;-69
2021/07/02 07:42:14;;;;;;;;;;;26.40;68.40;;;;;;4987130;28;19926;-69
2021/07/02 07:44:39;;;;;;;;;;;26.00;67.10;;;;;;4989503;28;20016;-67
2021/07/02 07:47:05;;;;;;;;;;;25.30;67.10;;;;;;4989382;28;19968;-69
2021/07/02 07:49:31;;;;;;;;;;;24.70;67.10;;;;;;4991543;28;19918;-68
2021/07/02 07:52:01;;;;;;;;;;;23.90;68.30;;;;;;4986577;28;19930;-67
2021/07/02 07:54:27;;;;;;;;;;;23.50;71.10;;;;;;4989599;28;19940;-68
2021/07/02 07:56:53;;;;;;;;;;;23.40;71.10;;;;;;4989471;28;19929;-65
2021/07/02 07:59:25;;;;;;;;;;;23.80;74.20;;;;;;4991474;28;20286;-69
2021/07/02 08:01:51;;;;;;;;;;;25.90;78.80;;;;;;4991323;28;19925;-69
2021/07/02 08:04:17;;;;;;;;;;;28.50;74.50;;;;;;4991319;28;19922;-68
2021/07/02 08:06:43;;;;;;;;;;;29.10;67.20;;;;;;4990906;28;20010;-69
2021/07/02 08:09:08;;;;;;;;;;;29.90;64.30;;;;;;4991073;28;19925;-70
2021/07/02 08:11:34;;;;;;;;;;;31.10;65.90;;;;;;4990003;28;19925;-68
2021/07/02 08:14:00;;;;;;;;;;;32.80;64.50;;;;;;4991469;28;20370;-69
2021/07/02 08:16:26;;;;;;;;;;;33.20;58.90;;;;;;4990790;28;20019;-68
2021/07/02 08:18:51;;;;;;;;;;;32.30;55.10;;;;;;4997428;28;19917;-69
2021/07/02 08:21:17;;;;;;;;;;;30.70;55.20;;;;;;5004493;28;19929;-70
2021/07/02 08:23:43;;;;;;;;;;;29.80;57.30;;;;;;4995025;28;19925;-68
2021/07/02 08:26:08;;;;;;;;;;;29.70;60.40;;;;;;4999425;28;19917;-68
2021/07/02 08:31:18;;;;;;;;;;;33.60;60.60;;;;;;4997964;28;20350;-69
2021/07/02 08:33:44;;;;;;;;;;;35.60;56.70;;;;;;4983186;28;19957;-68
2021/07/02 08:36:09;;;;;;;;;;;36.90;54.50;;;;;;4998230;28;19925;-69
2021/07/02 08:38:35;;;;;;;;;;;38.50;52.20;;;;;;4999218;28;19922;-69
2021/07/02 08:41:02;;;;;;;;;;;39.20;47.40;;;;;;4999955;28;19918;-69
2021/07/02 08:43:28;;;;;;;;;;;39.70;46.60;;;;;;4998381;28;20393;-69
2021/07/02 08:45:54;;;;;;;;;;;39.80;44.00;;;;;;4996382;28;19949;-70
2021/07/02 08:48:21;;;;;;;;;;;37.90;42.40;;;;;;4998372;28;20358;-68
2021/07/02 08:50:46;;;;;;;;;;;35.50;44.10;;;;;;5000095;28;19918;-68
2021/07/02 08:53:12;;;;;;;;;;;35.60;50.00;;;;;;4995455;28;19972;-69
2021/07/02 08:55:39;;;;;;;;;;;37.20;48.00;;;;;;4988170;28;20290;-69
2021/07/02 08:58:14;;;;;;;;;;;36.60;44.60;;;;;;4995958;28;19956;-69
2021/07/02 09:00:41;;;;;;;;;;;35.40;45.80;;;;;;4998354;28;19967;-68
2021/07/02 09:03:26;;;;;;;;;;;35.90;48.30;;;;;;4992955;28;20000;-70
2021/07/02 09:05:53;;;;;;;;;;;37.10;47.40;;;;;;4990151;28;20302;-70
2021/07/02 09:08:19;;;;;;;;;;;37.60;45.20;;;;;;4987771;28;19918;-68
2021/07/02 09:10:45;;;;;;;;;;;37.00;42.10;;;;;;4990780;28;19918;-69
2021/07/02 09:13:14;;;;;;;;;;;34.50;42.30;;;;;;5009356;28;19947;-68
2021/07/02 09:15:44;;;;;;;;;;;33.10;48.30;;;;;;5009999;28;20499;-69
2021/07/02 09:18:11;;;;;;;;;;;33.80;50.00;;;;;;5008259;28;19921;-68
2021/07/02 09:20:38;;;;;;;;;;;35.50;48.10;;;;;;5009496;28;20609;-69
2021/07/02 09:23:09;;;;;;;;;;;37.10;46.60;;;;;;5009675;28;19987;-68
2021/07/02 09:25:35;;;;;;;;;;;37.40;44.20;;;;;;5009631;28;19924;-69
2021/07/02 09:28:02;;;;;;;;;;;38.10;45.30;;;;;;5008808;28;19914;-69
2021/07/02 09:30:29;;;;;;;;;;;39.80;44.60;;;;;;5009068;28;19921;-70
2021/07/02 09:33:04;;;;;;;;;;;41.50;42.90;;;;;;5009595;28;19921;-71
2021/07/02 09:35:35;;;;;;;;;;;42.50;40.10;;;;;;5009545;28;19924;-71
2021/07/02 09:38:03;;;;;;;;;;;43.30;38.70;;;;;;5008075;28;19917;-70
2021/07/02 09:40:30;;;;;;;;;;;44.00;37.30;;;;;;5008381;28;19997;-70
2021/07/02 09:42:58;;;;;;;;;;;43.20;35.70;;;;;;5001051;28;19918;-70
2021/07/02 09:45:24;;;;;;;;;;;42.30;34.50;;;;;;4989875;28;19925;-70
2021/07/02 09:47:50;;;;;;;;;;;41.60;37.30;;;;;;4989603;28;19917;-70
2021/07/02 09:50:20;;;;;;;;;;;42.40;37.30;;;;;;4989696;28;20320;-70
2021/07/02 09:52:47;;;;;;;;;;;41.10;35.30;;;;;;4988988;28;19999;-70
2021/07/02 09:55:13;;;;;;;;;;;37.90;36.30;;;;;;4983056;28;20454;-68
2021/07/02 09:57:39;;;;;;;;;;;34.70;39.30;;;;;;4986426;28;20371;-67
2021/07/02 10:00:06;;;;;;;;;;;33.40;44.90;;;;;;4989537;28;19936;-69
2021/07/02 10:02:57;;;;;;;;;;;34.60;45.70;;;;;;4988783;28;19922;-68
2021/07/02 10:05:23;;;;;;;;;;;35.80;44.10;;;;;;4989711;28;19922;-69
2021/07/02 10:07:56;;;;;;;;;;;35.90;40.60;;;;;;4989016;28;20016;-69
2021/07/02 10:10:22;;;;;;;;;;;33.60;40.50;;;;;;4988383;28;20338;-69
2021/07/02 10:12:49;;;;;;;;;;;33.40;44.80;;;;;;4988353;28;19975;-68
2021/07/02 10:15:14;;;;;;;;;;;35.10;44.90;;;;;;4982874;28;20390;-68
2021/07/02 10:17:40;;;;;;;;;;;37.10;43.30;;;;;;4986411;28;19956;-68
2021/07/02 10:20:06;;;;;;;;;;;39.30;42.20;;;;;;4986582;28;19974;-59
2021/07/02 10:22:32;;;;;;;;;;;40.80;39.00;;;;;;4987993;28;20382;-59
2021/07/02 10:24:58;;;;;;;;;;;41.90;37.90;;;;;;5045729;23;19929;-64
2021/07/02 10:27:24;;;;;;;;;;;43.00;36.70;;;;;;5031080;28;19983;-64
2021/07/02 10:29:49;;;;;;;;;;;44.10;34.70;;;;;;5031477;28;19917;-64
2021/07/02 10:32:15;;;;;;;;;;;44.30;33.80;;;;;;5037731;28;19928;-64
2021/07/02 10:34:41;;;;;;;;;;;43.40;32.50;;;;;;5039557;28;19917;-64
2021/07/02 10:37:09;;;;;;;;;;;42.10;33.20;;;;;;5050550;28;20019;-64
2021/07/02 10:39:35;;;;;;;;;;;41.90;34.90;;;;;;5050794;28;19924;-64
2021/07/02 10:42:08;;;;;;;;;;;42.40;34.70;;;;;;5033513;28;19978;-64
2021/07/02 10:44:54;;;;;;;;;;;43.30;35.40;;;;;;5043917;28;19973;-65
2021/07/02 10:47:23;;;;;;;;;;;43.90;33.70;;;;;;5070788;28;20011;-65
2021/07/02 10:49:50;;;;;;;;;;;44.50;33.70;;;;;;5070719;28;19916;-65
2021/07/02 10:52:23;;;;;;;;;;;44.50;32.40;;;;;;5055003;28;20459;-65
2021/07/02 10:54:49;;;;;;;;;;;44.60;32.50;;;;;;5048649;28;19929;-65
2021/07/02 10:57:17;;;;;;;;;;;44.80;32.80;;;;;;5048652;28;19921;-65
2021/07/02 10:59:46;;;;;;;;;;;45.20;32.20;;;;;;5024485;28;19924;-65
2021/07/02 11:02:12;;;;;;;;;;;44.60;30.10;;;;;;5049142;28;20058;-64
2021/07/02 11:04:41;;;;;;;;;;;42.00;31.20;;;;;;5030387;28;20519;-64
2021/07/02 11:07:12;;;;;;;;;;;39.60;33.10;;;;;;5050094;28;19916;-64
2021/07/02 11:09:50;;;;;;;;;;;39.30;35.90;;;;;;5048328;28;20600;-64
2021/07/02 11:12:16;;;;;;;;;;;39.10;34.80;;;;;;5048979;28;19928;-64
2021/07/02 11:15:03;;;;;;;;;;;37.20;35.00;;;;;;5040841;28;19936;-64
2021/07/02 11:17:31;;;;;;;;;;;34.90;36.30;;;;;;5026420;28;19923;-64
2021/07/02 11:20:06;;;;;;;;;;;32.80;40.00;;;;;;5022574;28;19916;-64
2021/07/02 11:22:39;;;;;;;;;;;33.70;41.50;;;;;;5043511;28;19917;-64
2021/07/02 11:25:10;;;;;;;;;;;35.10;40.10;;;;;;5035401;28;19924;-64
2021/07/02 11:27:48;;;;;;;;;;;36.50;39.10;;;;;;5049796;28;19947;-64
2021/07/02 11:30:19;;;;;;;;;;;37.90;38.10;;;;;;5049060;28;20365;-64
2021/07/02 11:32:46;;;;;;;;;;;37.20;36.10;;;;;;5049284;28;19924;-63
2021/07/02 11:35:22;;;;;;;;;;;35.90;36.70;;;;;;5036273;28;19921;-63
2021/07/02 11:37:56;;;;;;;;;;;34.30;37.20;;;;;;5053624;28;19945;-64
2021/07/02 11:40:22;;;;;;;;;;;32.50;39.50;;;;;;5054229;28;19916;-63
2021/07/02 11:42:51;;;;;;;;;;;31.20;40.70;;;;;;5053674;28;19939;-63
2021/07/02 11:45:16;;;;;;;;;;;30.10;42.80;;;;;;5054283;28;19943;-63
2021/07/02 11:47:42;;;;;;;;;;;29.60;44.00;;;;;;5035626;28;19948;-63
2021/07/02 11:50:08;;;;;;;;;;;29.60;44.30;;;;;;5019362;28;19913;-63
2021/07/02 11:52:34;;;;;;;;;;;30.10;44.20;;;;;;5045835;28;19924;-63
2021/07/02 11:55:00;;;;;;;;;;;30.50;43.50;;;;;;5053072;28;20452;-63
2021/07/02 11:57:25;;;;;;;;;;;30.80;42.60;;;;;;5050463;28;19917;-62
2021/07/02 11:59:57;;;;;;;;;;;31.00;42.40;;;;;;5048380;28;20000;-63
2021/07/02 12:02:23;;;;;;;;;;;31.10;42.70;;;;;;5051925;28;20381;-63
2021/07/02 12:05:00;;;;;;;;;;;30.70;42.40;;;;;;5048139;28;19923;-63
2021/07/02 12:07:26;;;;;;;;;;;30.20;42.60;;;;;;5049836;28;19917;-63
2021/07/02 12:09:51;;;;;;;;;;;30.00;43.40;;;;;;5038890;28;19917;-63
2021/07/02 12:12:20;;;;;;;;;;;29.80;43.20;;;;;;5053821;28;20436;-63
2021/07/02 12:14:46;;;;;;;;;;;29.30;43.60;;;;;;5040744;28;19933;-63
2021/07/02 12:17:11;;;;;;;;;;;28.90;44.50;;;;;;5015722;28;19940;-63
2021/07/02 12:19:41;;;;;;;;;;;29.00;45.20;;;;;;5049430;28;20284;-62
2021/07/02 12:22:14;;;;;;;;;;;29.00;44.10;;;;;;5033831;28;20399;-63
2021/07/02 12:24:43;;;;;;;;;;;28.30;43.90;;;;;;5039135;28;20335;-63
2021/07/02 12:27:12;;;;;;;;;;;27.90;46.20;;;;;;5052597;28;19917;-63
2021/07/02 12:29:37;;;;;;;;;;;28.00;46.30;;;;;;5053313;28;19917;-63
2021/07/02 12:32:04;;;;;;;;;;;28.00;45.70;;;;;;5052556;28;20430;-63
2021/07/02 12:34:37;;;;;;;;;;;27.80;45.50;;;;;;5033762;28;20268;-63
2021/07/02 12:37:05;;;;;;;;;;;27.50;45.70;;;;;;5047889;28;20027;-63
2021/07/02 12:39:31;;;;;;;;;;;27.50;46.60;;;;;;5018246;28;20606;-63
2021/07/02 12:42:01;;;;;;;;;;;27.30;46.00;;;;;;5033116;28;19917;-63
2021/07/02 12:44:28;;;;;;;;;;;27.20;46.50;;;;;;5031250;28;19963;-62
2021/07/02 12:46:54;;;;;;;;;;;27.10;46.70;;;;;;5030170;28;20012;-63
2021/07/02 12:49:31;;;;;;;;;;;27.10;46.50;;;;;;5029981;28;19956;-62
2021/07/02 12:54:47;;;;;;;;;;;26.70;46.90;;;;;;5031998;28;19917;-62
2021/07/02 12:57:33;;;;;;;;;;;26.50;47.50;;;;;;5040080;28;20523;-62
2021/07/02 13:00:00;;;;;;;;;;;26.40;48.00;;;;;;5038584;28;19917;-62
2021/07/02 13:02:52;;;;;;;;;;;26.50;48.60;;;;;;5045492;28;19918;-62
2021/07/02 13:05:18;;;;;;;;;;;26.40;48.30;;;;;;5037816;28;20388;-63
2021/07/02 13:08:02;;;;;;;;;;;26.10;48.20;;;;;;5045039;28;19960;-63
2021/07/02 13:10:32;;;;;;;;;;;25.70;48.40;;;;;;5052034;28;20266;-62
2021/07/02 13:13:00;;;;;;;;;;;25.30;49.40;;;;;;5050226;28;19920;-62
2021/07/02 13:15:27;;;;;;;;;;;25.10;50.10;;;;;;5043655;28;19917;-63
2021/07/02 13:17:52;;;;;;;;;;;25.00;50.70;;;;;;5039759;28;19971;-63
2021/07/02 13:20:18;;;;;;;;;;;24.80;50.80;;;;;;5057885;28;19929;-62
2021/07/02 13:22:59;;;;;;;;;;;24.70;51.70;;;;;;5050493;28;19924;-61
2021/07/02 13:25:24;;;;;;;;;;;24.90;52.80;;;;;;5044281;28;19940;-62
2021/07/02 13:27:54;;;;;;;;;;;25.10;52.30;;;;;;5037348;28;19916;-62
2021/07/02 13:30:25;;;;;;;;;;;25.20;51.90;;;;;;5049787;28;19985;-62
2021/07/02 13:33:02;;;;;;;;;;;25.20;52.00;;;;;;5033171;28;19929;-62
2021/07/02 13:35:27;;;;;;;;;;;25.10;51.50;;;;;;5032494;28;19921;-62
2021/07/02 13:37:56;;;;;;;;;;;24.70;52.20;;;;;;5038145;28;20396;-62
2021/07/02 13:40:41;;;;;;;;;;;24.70;53.20;;;;;;5060746;28;19986;-62
2021/07/02 13:43:12;;;;;;;;;;;24.80;53.20;;;;;;5031209;28;20012;-62
2021/07/02 13:45:38;;;;;;;;;;;24.70;52.80;;;;;;5049795;28;20373;-62
2021/07/02 13:48:07;;;;;;;;;;;24.60;53.10;;;;;;5041926;28;19925;-62
2021/07/02 13:50:36;;;;;;;;;;;24.50;53.50;;;;;;5039173;28;19917;-62
2021/07/02 13:53:09;;;;;;;;;;;24.40;54.30;;;;;;5037566;28;19921;-61
2021/07/02 13:55:35;;;;;;;;;;;24.50;54.50;;;;;;5028384;28;19974;-62
2021/07/02 13:58:01;;;;;;;;;;;24.40;54.20;;;;;;5034216;28;19921;-61
2021/07/02 14:00:27;;;;;;;;;;;24.20;54.30;;;;;;5041199;28;19936;-62
2021/07/02 14:02:52;;;;;;;;;;;24.00;55.10;;;;;;5042175;28;19924;-62
2021/07/02 14:05:18;;;;;;;;;;;24.10;56.00;;;;;;5053622;28;19917;-63
2021/07/02 14:07:43;;;;;;;;;;;24.30;56.10;;;;;;5043117;28;20399;-62
2021/07/02 14:10:09;;;;;;;;;;;24.60;56.20;;;;;;5032112;28;20377;-61
2021/07/02 14:12:35;;;;;;;;;;;24.70;55.70;;;;;;5033735;28;19943;-62
2021/07/02 14:15:00;;;;;;;;;;;24.70;54.80;;;;;;5039580;28;20364;-62
2021/07/02 14:17:26;;;;;;;;;;;24.40;55.00;;;;;;5045104;28;19968;-62
2021/07/02 14:19:51;;;;;;;;;;;24.30;55.40;;;;;;5034056;28;20025;-63
2021/07/02 14:22:17;;;;;;;;;;;24.20;55.90;;;;;;5045414;28;19952;-63
2021/07/02 14:24:42;;;;;;;;;;;24.10;56.20;;;;;;5030365;28;20428;-62